createdAt,value
2022-11-17T00:00:43.137Z,6.60
2022-11-17T00:03:19.166Z,6.60
2022-11-17T00:05:46.194Z,6.60
2022-11-17T00:13:29.530Z,6.60
2022-11-17T00:15:56.593Z,6.60
2022-11-17T00:21:21.578Z,6.70
2022-11-17T00:23:50.175Z,6.60
2022-11-17T00:26:31.318Z,6.70
2022-11-17T00:29:04.977Z,6.70
2022-11-17T00:31:53.206Z,6.70
2022-11-17T00:34:23.352Z,6.70
2022-11-17T00:36:53.891Z,6.70
2022-11-17T00:39:23.712Z,6.70
2022-11-17T00:41:51.170Z,6.70
2022-11-17T00:46:45.740Z,6.70
2022-11-17T00:51:41.887Z,6.70
2022-11-17T00:54:12.684Z,6.80
2022-11-17T00:56:40.487Z,6.80
2022-11-17T00:59:07.428Z,6.80
2022-11-17T01:04:04.351Z,6.70
2022-11-17T01:09:10.332Z,6.80
2022-11-17T01:11:37.344Z,6.80
2022-11-17T01:16:32.760Z,6.80
2022-11-17T01:19:04.219Z,6.70
2022-11-17T01:21:32.584Z,6.70
2022-11-17T01:24:01.754Z,6.70
2022-11-17T01:26:34.664Z,6.80
2022-11-17T01:29:04.355Z,6.80
2022-11-17T01:31:40.199Z,6.80
2022-11-17T01:34:07.977Z,6.80
2022-11-17T01:36:58.811Z,6.80
2022-11-17T01:39:29.323Z,6.80
2022-11-17T01:41:57.788Z,6.80
2022-11-17T01:45:05.256Z,6.80
2022-11-17T01:48:01.889Z,6.80
2022-11-17T01:50:40.733Z,6.80
2022-11-17T01:53:17.878Z,6.80
2022-11-17T01:55:56.684Z,6.80
2022-11-17T01:58:38.148Z,6.70
2022-11-17T02:03:35.559Z,6.80
2022-11-17T02:06:20.924Z,6.80
2022-11-17T02:08:51.408Z,6.80
2022-11-17T02:11:21.625Z,6.80
2022-11-17T02:13:53.398Z,6.80
2022-11-17T02:18:49.184Z,6.80
2022-11-17T02:22:16.292Z,6.80
2022-11-17T02:25:48.045Z,6.80
2022-11-17T02:28:47.349Z,6.90
2022-11-17T02:31:34.014Z,6.90
2022-11-17T02:34:32.952Z,6.90
2022-11-17T02:38:00.347Z,6.90
2022-11-17T02:40:35.011Z,6.90
2022-11-17T02:43:32.503Z,6.80
2022-11-17T02:46:20.643Z,6.90
2022-11-17T02:49:03.919Z,6.80
2022-11-17T02:51:34.746Z,5.60
2022-11-17T02:54:02.426Z,6.80
2022-11-17T02:59:05.151Z,6.80
2022-11-17T03:02:39.768Z,6.80
2022-11-17T03:05:42.111Z,6.80
2022-11-17T03:09:17.740Z,6.80
2022-11-17T03:12:10.511Z,6.80
2022-11-17T03:15:04.924Z,6.80
2022-11-17T03:18:09.259Z,6.80
2022-11-17T03:21:20.709Z,6.80
2022-11-17T03:24:00.763Z,6.70
2022-11-17T03:26:40.043Z,6.70
2022-11-17T03:29:14.184Z,6.70
2022-11-17T03:31:45.534Z,6.70
2022-11-17T03:34:20.611Z,6.70
2022-11-17T03:36:55.932Z,6.70
2022-11-17T03:39:37.192Z,6.70
2022-11-17T03:42:19.519Z,6.70
2022-11-17T03:44:56.276Z,6.70
2022-11-17T03:47:27.738Z,6.70
2022-11-17T03:50:12.604Z,6.70
2022-11-17T03:52:40.806Z,6.70
2022-11-17T03:55:09.557Z,6.70
2022-11-17T03:58:17.730Z,6.70
2022-11-17T04:00:49.296Z,6.80
2022-11-17T04:03:16.438Z,6.80
2022-11-17T04:05:43.579Z,6.70
2022-11-17T04:13:44.008Z,6.80
2022-11-17T04:23:33.908Z,6.80
2022-11-17T04:26:19.832Z,6.80
2022-11-17T04:28:50.035Z,6.80
2022-11-17T04:31:27.887Z,6.80
2022-11-17T04:34:05.468Z,6.80
2022-11-17T04:36:43.373Z,6.80
2022-11-17T04:39:13.092Z,6.80
2022-11-17T04:42:00.043Z,6.80
2022-11-17T04:44:30.788Z,6.80
2022-11-17T04:49:26.337Z,6.80
2022-11-17T04:51:54.064Z,6.80
2022-11-17T04:54:24.571Z,6.80
2022-11-17T04:56:53.334Z,6.70
2022-11-17T04:59:20.823Z,6.70
2022-11-17T05:01:48.603Z,6.70
2022-11-17T05:04:39.341Z,6.70
2022-11-17T05:07:07.868Z,6.60
2022-11-17T05:17:18.024Z,6.70
2022-11-17T05:19:48.059Z,6.70
2022-11-17T05:22:41.603Z,6.80
2022-11-17T05:25:10.209Z,6.80
2022-11-17T05:30:08.569Z,6.80
2022-11-17T05:37:30.728Z,6.80
2022-11-17T05:39:57.682Z,7.00
2022-11-17T05:42:24.621Z,6.80
2022-11-17T05:44:51.623Z,6.80
2022-11-17T05:49:45.988Z,6.80
2022-11-17T05:52:12.964Z,6.80
2022-11-17T05:54:39.908Z,6.80
2022-11-17T05:57:15.137Z,6.80
2022-11-17T05:59:59.509Z,6.80
2022-11-17T06:02:37.320Z,6.80
2022-11-17T06:05:05.111Z,6.80
2022-11-17T06:07:32.593Z,6.80
2022-11-17T06:12:27.114Z,6.90
2022-11-17T06:17:31.881Z,6.90
2022-11-17T06:20:25.842Z,6.80
2022-11-17T06:25:23.106Z,6.80
2022-11-17T06:27:51.771Z,6.80
2022-11-17T06:30:19.293Z,6.80
2022-11-17T06:32:49.356Z,6.90
2022-11-17T06:35:17.821Z,6.80
2022-11-17T06:37:44.771Z,6.90
2022-11-17T06:40:13.236Z,6.90
2022-11-17T06:42:58.996Z,6.90
2022-11-17T06:45:26.532Z,6.90
2022-11-17T06:47:54.478Z,6.90
2022-11-17T06:50:21.788Z,6.90
2022-11-17T06:55:16.361Z,6.90
2022-11-17T06:57:46.607Z,6.90
2022-11-17T07:00:19.004Z,6.90
2022-11-17T07:07:40.984Z,6.90
2022-11-17T07:10:09.161Z,6.90
2022-11-17T07:12:36.221Z,6.90
2022-11-17T07:15:03.466Z,6.90
2022-11-17T07:17:30.629Z,6.90
2022-11-17T07:19:57.769Z,6.90
2022-11-17T07:22:24.769Z,6.90
2022-11-17T07:27:19.283Z,6.90
2022-11-17T07:29:46.339Z,6.90
2022-11-17T07:32:14.230Z,6.90
2022-11-17T07:34:42.483Z,7.00
2022-11-17T07:37:09.611Z,7.00
2022-11-17T07:39:37.106Z,6.90
2022-11-17T07:44:31.719Z,6.90
2022-11-17T07:46:58.777Z,6.90
2022-11-17T07:49:28.026Z,6.90
2022-11-17T07:51:55.099Z,7.00
2022-11-17T07:56:49.738Z,7.00
2022-11-17T07:59:21.221Z,7.00
2022-11-17T08:04:16.177Z,7.00
2022-11-17T08:06:43.215Z,7.00
2022-11-17T08:09:12.625Z,7.10
2022-11-17T08:11:40.323Z,7.10
2022-11-17T08:14:07.618Z,7.20
2022-11-17T08:19:04.315Z,7.30
2022-11-17T08:21:31.659Z,7.40
2022-11-17T08:24:00.136Z,7.40
2022-11-17T08:28:58.507Z,7.50
2022-11-17T08:31:26.296Z,7.50
2022-11-17T08:36:20.935Z,7.50
2022-11-17T08:38:47.979Z,7.60
2022-11-17T08:43:42.505Z,7.90
2022-11-17T08:46:13.525Z,8.00
2022-11-17T08:48:40.805Z,8.00
2022-11-17T08:51:09.686Z,8.10
2022-11-17T08:53:36.720Z,8.20
2022-11-17T08:56:09.446Z,8.20
2022-11-17T08:58:45.011Z,8.30
2022-11-17T09:06:17.977Z,8.50
2022-11-17T09:11:24.130Z,8.70
2022-11-17T09:13:51.075Z,8.80
2022-11-17T09:16:18.471Z,8.80
2022-11-17T09:18:45.440Z,8.80
2022-11-17T09:21:15.687Z,8.90
2022-11-17T09:23:43.220Z,9.30
2022-11-17T09:26:14.383Z,9.80
2022-11-17T09:28:43.887Z,9.80
2022-11-17T09:31:19.056Z,9.80
2022-11-17T09:33:47.123Z,9.50
2022-11-17T09:36:16.817Z,9.30
2022-11-17T09:38:45.328Z,9.20
2022-11-17T09:41:21.302Z,9.10
2022-11-17T09:44:32.392Z,9.00
2022-11-17T09:47:32.916Z,9.00
2022-11-17T09:50:27.101Z,8.80
2022-11-17T09:53:27.353Z,8.70
2022-11-17T09:56:01.559Z,8.60
2022-11-17T09:58:46.632Z,8.60
2022-11-17T10:01:20.368Z,8.50
2022-11-17T10:03:51.156Z,8.50
2022-11-17T10:06:24.525Z,8.60
2022-11-17T10:09:10.137Z,8.60
2022-11-17T10:11:42.678Z,8.70
2022-11-17T10:17:04.720Z,8.80
2022-11-17T10:19:38.103Z,8.80
2022-11-17T10:22:05.346Z,8.80
2022-11-17T10:24:38.914Z,8.90
2022-11-17T10:27:33.793Z,8.90
2022-11-17T10:30:23.302Z,8.90
2022-11-17T10:32:57.949Z,9.00
2022-11-17T10:35:33.796Z,9.10
2022-11-17T10:38:08.136Z,9.10
2022-11-17T10:40:40.746Z,9.20
2022-11-17T10:43:13.820Z,9.20
2022-11-17T10:46:12.329Z,9.30
2022-11-17T10:48:57.023Z,9.30
2022-11-17T10:51:28.269Z,9.30
2022-11-17T10:54:15.313Z,9.40
2022-11-17T10:56:54.503Z,9.30
2022-11-17T10:59:32.714Z,9.30
2022-11-17T11:02:40.234Z,9.20
2022-11-17T11:05:19.810Z,9.20
2022-11-17T11:10:34.942Z,9.20
2022-11-17T11:13:20.542Z,9.20
2022-11-17T11:15:48.052Z,9.20
2022-11-17T11:18:18.888Z,9.10
2022-11-17T11:21:16.674Z,9.10
2022-11-17T11:24:15.843Z,9.10
2022-11-17T11:27:16.575Z,9.10
2022-11-17T11:30:13.377Z,9.10
2022-11-17T11:33:38.154Z,9.20
2022-11-17T11:39:40.333Z,9.30
2022-11-17T11:42:52.580Z,9.30
2022-11-17T11:45:40.591Z,9.40
2022-11-17T11:48:34.136Z,9.40
2022-11-17T11:51:18.769Z,9.50
2022-11-17T11:54:09.044Z,9.60
2022-11-17T11:56:46.067Z,9.80
2022-11-17T11:59:23.668Z,9.90
2022-11-17T12:02:12.881Z,10.00
2022-11-17T12:05:34.374Z,10.20
2022-11-17T12:08:29.219Z,10.50
2022-11-17T12:11:30.170Z,11.20
2022-11-17T12:13:59.699Z,13.00
2022-11-17T12:16:35.327Z,13.30
2022-11-17T12:19:42.396Z,13.00
2022-11-17T12:22:36.183Z,15.10
2022-11-17T12:25:22.382Z,16.00
2022-11-17T12:27:53.054Z,16.10
2022-11-17T12:30:37.429Z,14.60
2022-11-17T12:33:08.525Z,13.50
2022-11-17T12:35:39.278Z,15.00
2022-11-17T12:38:15.353Z,14.20
2022-11-17T12:43:15.695Z,13.10
2022-11-17T12:46:25.496Z,12.50
2022-11-17T12:49:22.778Z,12.10
2022-11-17T12:52:02.887Z,12.50
2022-11-17T12:54:58.279Z,12.70
2022-11-17T12:57:34.145Z,12.60
2022-11-17T13:00:23.349Z,13.00
2022-11-17T13:03:04.643Z,14.80
2022-11-17T13:08:28.568Z,14.90
2022-11-17T13:11:07.851Z,13.80
2022-11-17T13:16:05.272Z,14.20
2022-11-17T13:18:38.595Z,14.20
2022-11-17T13:21:31.688Z,14.60
2022-11-17T13:24:00.393Z,15.80
2022-11-17T13:26:38.571Z,15.70
2022-11-17T13:29:19.443Z,15.20
2022-11-17T13:31:46.880Z,15.40
2022-11-17T13:34:17.525Z,15.60
2022-11-17T13:37:00.716Z,15.60
2022-11-17T13:39:28.967Z,14.90
2022-11-17T13:42:04.121Z,14.90
2022-11-17T13:44:33.064Z,14.60
2022-11-17T13:47:28.176Z,14.90
2022-11-17T13:49:55.268Z,14.70
2022-11-17T13:52:43.588Z,13.40
2022-11-17T13:55:21.327Z,13.90
2022-11-17T13:58:05.930Z,13.70
2022-11-17T14:00:34.277Z,13.90
2022-11-17T14:03:06.907Z,14.50
2022-11-17T14:05:34.491Z,14.30
2022-11-17T14:08:23.696Z,13.80
2022-11-17T14:11:09.890Z,13.00
2022-11-17T14:13:53.853Z,12.50
2022-11-17T14:16:38.889Z,12.30
2022-11-17T14:19:33.026Z,11.10
2022-11-17T14:22:29.484Z,9.90
2022-11-17T14:24:58.664Z,9.30
2022-11-17T14:27:36.114Z,9.00
2022-11-17T14:30:05.515Z,8.70
2022-11-17T14:32:34.625Z,8.70
2022-11-17T14:37:32.236Z,8.70
2022-11-17T14:45:03.441Z,8.70
2022-11-17T14:47:30.441Z,8.60
2022-11-17T14:49:57.557Z,8.60
2022-11-17T14:52:24.638Z,8.70
2022-11-17T14:54:51.689Z,8.60
2022-11-17T14:57:18.751Z,8.70
2022-11-17T14:59:45.714Z,9.20
2022-11-17T15:02:12.751Z,9.30
2022-11-17T15:04:50.537Z,9.30
2022-11-17T15:09:45.943Z,9.40
2022-11-17T15:14:40.442Z,9.10
2022-11-17T15:17:13.905Z,9.00
2022-11-17T15:19:42.427Z,8.90
2022-11-17T15:22:09.413Z,8.70
2022-11-17T15:24:36.478Z,8.70
2022-11-17T15:31:58.316Z,8.50
2022-11-17T15:36:52.946Z,8.30
2022-11-17T15:39:20.795Z,8.20
2022-11-17T15:41:49.537Z,8.00
2022-11-17T15:44:18.767Z,7.90
2022-11-17T15:46:47.787Z,7.70
2022-11-17T15:49:15.777Z,7.70
2022-11-17T15:51:43.113Z,7.50
2022-11-17T15:54:19.677Z,7.50
2022-11-17T16:01:43.854Z,7.50
2022-11-17T16:04:15.827Z,7.60
2022-11-17T16:06:46.157Z,7.70
2022-11-17T16:09:14.651Z,7.80
2022-11-17T16:16:39.708Z,7.80
2022-11-17T16:19:07.496Z,7.80
2022-11-17T16:21:34.674Z,7.80
2022-11-17T16:26:30.748Z,8.10
2022-11-17T16:29:06.668Z,8.20
2022-11-17T16:31:36.480Z,8.30
2022-11-17T16:34:10.762Z,8.40
2022-11-17T16:36:41.424Z,8.50
2022-11-17T16:39:13.669Z,8.60
2022-11-17T16:41:50.005Z,8.60
2022-11-17T16:44:21.519Z,8.60
2022-11-17T16:46:49.858Z,8.60
2022-11-17T16:49:19.921Z,8.60
2022-11-17T16:51:52.005Z,8.50
2022-11-17T16:54:20.018Z,8.50
2022-11-17T17:01:48.054Z,8.50
2022-11-17T17:04:15.177Z,8.60
2022-11-17T17:06:45.061Z,8.60
2022-11-17T17:09:14.857Z,8.60
2022-11-17T17:11:42.549Z,8.60
2022-11-17T17:14:14.692Z,8.60
2022-11-17T17:16:43.159Z,8.60
2022-11-17T17:19:13.129Z,8.60
2022-11-17T17:21:42.761Z,8.50
2022-11-17T17:24:10.522Z,8.40
2022-11-17T17:29:07.457Z,8.30
2022-11-17T17:31:41.315Z,8.20
2022-11-17T17:34:11.925Z,8.20
2022-11-17T17:36:39.022Z,8.20
2022-11-17T17:39:06.972Z,8.10
2022-11-17T17:41:39.622Z,8.00
2022-11-17T17:44:08.464Z,7.90
2022-11-17T17:46:38.714Z,7.80
2022-11-17T17:49:06.613Z,7.70
2022-11-17T17:51:40.058Z,7.70
2022-11-17T17:54:13.272Z,7.60
2022-11-17T17:56:40.242Z,7.40
2022-11-17T17:59:07.281Z,7.30
2022-11-17T18:01:35.393Z,7.20
2022-11-17T18:06:40.850Z,7.20
2022-11-17T18:09:10.960Z,7.20
2022-11-17T18:11:45.557Z,7.30
2022-11-17T18:14:13.280Z,7.30
2022-11-17T18:16:40.682Z,7.30
2022-11-17T18:19:12.698Z,7.20
2022-11-17T18:21:39.768Z,7.20
2022-11-17T18:26:36.173Z,7.10
2022-11-17T18:29:18.186Z,7.00
2022-11-17T18:31:47.510Z,7.00
2022-11-17T18:34:21.001Z,7.00
2022-11-17T18:36:50.655Z,7.10
2022-11-17T18:39:18.453Z,7.20
2022-11-17T18:44:19.286Z,7.20
2022-11-17T18:46:46.715Z,7.20
2022-11-17T18:54:12.584Z,7.00
2022-11-17T18:56:39.954Z,7.00
2022-11-17T18:59:11.468Z,7.00
2022-11-17T19:01:42.711Z,7.10
2022-11-17T19:04:13.871Z,7.10
2022-11-17T19:06:41.180Z,7.20
2022-11-17T19:11:35.863Z,7.30
2022-11-17T19:14:05.047Z,7.40
2022-11-17T19:21:35.957Z,7.50
2022-11-17T19:24:04.533Z,7.60
2022-11-17T19:26:35.978Z,7.60
2022-11-17T19:29:16.151Z,7.60
2022-11-17T19:31:45.783Z,7.60
2022-11-17T19:36:41.796Z,7.60
2022-11-17T19:39:08.787Z,7.60
2022-11-17T19:41:39.593Z,7.70
2022-11-17T19:44:08.973Z,7.80
2022-11-17T19:46:36.969Z,7.80
2022-11-17T19:49:06.228Z,7.80
2022-11-17T19:51:38.789Z,7.80
2022-11-17T19:54:09.908Z,7.90
2022-11-17T19:56:38.266Z,7.90
2022-11-17T19:59:06.303Z,8.00
2022-11-17T20:01:34.551Z,8.00
2022-11-17T20:04:02.226Z,8.00
2022-11-17T20:06:36.958Z,8.00
2022-11-17T20:09:11.321Z,7.90
2022-11-17T20:11:39.428Z,8.00
2022-11-17T20:14:07.125Z,8.00
2022-11-17T20:19:03.052Z,8.00
2022-11-17T20:21:31.353Z,8.00
2022-11-17T20:24:02.030Z,8.00
2022-11-17T20:26:33.360Z,8.00
2022-11-17T20:29:01.430Z,8.00
2022-11-17T20:31:33.689Z,8.00
2022-11-17T20:34:04.127Z,7.90
2022-11-17T20:36:34.843Z,8.00
2022-11-17T20:39:05.652Z,8.00
2022-11-17T20:41:32.889Z,8.10
2022-11-17T20:44:00.793Z,8.10
2022-11-17T20:46:28.370Z,8.10
2022-11-17T20:48:55.573Z,8.00
2022-11-17T20:51:25.378Z,8.00
2022-11-17T20:53:52.710Z,8.00
2022-11-17T20:56:21.113Z,8.10
2022-11-17T20:58:48.269Z,8.10
2022-11-17T21:01:23.858Z,8.10
2022-11-17T21:03:51.211Z,8.10
2022-11-17T21:06:19.995Z,8.10
2022-11-17T21:11:38.247Z,8.10
2022-11-17T21:14:08.170Z,8.10
2022-11-17T21:16:38.959Z,8.10
2022-11-17T21:19:06.718Z,8.10
2022-11-17T21:21:33.963Z,8.10
2022-11-17T21:24:01.623Z,8.10
2022-11-17T21:26:28.986Z,8.10
2022-11-17T21:28:59.313Z,8.10
2022-11-17T21:31:31.739Z,8.10
2022-11-17T21:34:06.410Z,8.10
2022-11-17T21:36:35.479Z,8.10
2022-11-17T21:39:02.850Z,8.10
2022-11-17T21:41:35.240Z,8.10
2022-11-17T21:44:03.828Z,8.00
2022-11-17T21:46:34.254Z,8.00
2022-11-17T21:49:01.894Z,8.00
2022-11-17T21:51:34.371Z,8.00
2022-11-17T21:54:08.523Z,8.00
2022-11-17T21:56:36.473Z,8.00
2022-11-17T21:59:12.689Z,8.00
2022-11-17T22:01:40.172Z,8.10
2022-11-17T22:04:07.512Z,8.00
2022-11-17T22:11:38.334Z,8.10
2022-11-17T22:14:19.141Z,8.10
2022-11-17T22:16:53.038Z,8.00
2022-11-17T22:19:23.729Z,8.00
2022-11-17T22:21:53.751Z,8.00
2022-11-17T22:24:23.151Z,8.10
2022-11-17T22:26:51.511Z,8.10
2022-11-17T22:29:21.945Z,8.10
2022-11-17T22:31:50.252Z,8.10
2022-11-17T22:34:18.606Z,8.10
2022-11-17T22:36:45.720Z,8.10
2022-11-17T22:39:12.929Z,8.10
2022-11-17T22:41:40.381Z,8.00
2022-11-17T22:44:07.628Z,8.00
2022-11-17T22:46:36.018Z,8.00
2022-11-17T22:49:03.271Z,8.00
2022-11-17T22:51:49.064Z,8.00
2022-11-17T22:54:16.224Z,8.00
2022-11-17T23:01:38.493Z,8.00
2022-11-17T23:04:06.360Z,8.00
2022-11-17T23:06:33.506Z,8.00
2022-11-17T23:14:13.330Z,8.00
2022-11-17T23:16:41.261Z,8.00
2022-11-17T23:21:39.726Z,7.90
2022-11-17T23:24:09.798Z,8.00
2022-11-17T23:31:31.861Z,8.00
2022-11-17T23:33:58.881Z,8.00
2022-11-17T23:36:26.118Z,8.00
2022-11-17T23:38:57.510Z,8.00
2022-11-17T23:43:54.113Z,8.10
2022-11-17T23:46:25.005Z,8.00
2022-11-17T23:48:52.243Z,8.00
2022-11-17T23:51:23.262Z,8.00
2022-11-17T23:53:50.920Z,7.90
2022-11-17T23:56:20.524Z,7.90
2022-11-17T23:58:48.109Z,7.90
